sensor_id;sensor_type;location;lat;lon;timestamp;P1;durP1;ratioP1;P2;durP2;ratioP2
16354;SDS011;8287;51.644;8.494;2022-11-11T00:01:38;16.38;;;15.40;;
16354;SDS011;8287;51.644;8.494;2022-11-11T00:04:04;16.35;;;15.15;;
16354;SDS011;8287;51.644;8.494;2022-11-11T00:06:32;14.40;;;13.60;;
16354;SDS011;8287;51.644;8.494;2022-11-11T00:08:59;15.90;;;15.07;;
16354;SDS011;8287;51.644;8.494;2022-11-11T00:11:25;19.10;;;18.20;;
16354;SDS011;8287;51.644;8.494;2022-11-11T00:13:52;20.40;;;19.35;;
16354;SDS011;8287;51.644;8.494;2022-11-11T00:16:19;15.65;;;14.75;;
16354;SDS011;8287;51.644;8.494;2022-11-11T00:18:46;19.42;;;18.27;;
16354;SDS011;8287;51.644;8.494;2022-11-11T00:21:30;16.17;;;15.18;;
16354;SDS011;8287;51.644;8.494;2022-11-11T00:24:21;17.30;;;16.60;;
16354;SDS011;8287;51.644;8.494;2022-11-11T00:27:06;21.17;;;19.85;;
16354;SDS011;8287;51.644;8.494;2022-11-11T00:29:33;14.13;;;13.52;;
16354;SDS011;8287;51.644;8.494;2022-11-11T00:31:59;20.80;;;19.60;;
16354;SDS011;8287;51.644;8.494;2022-11-11T00:34:44;26.83;;;25.63;;
16354;SDS011;8287;51.644;8.494;2022-11-11T00:37:31;21.98;;;20.73;;
16354;SDS011;8287;51.644;8.494;2022-11-11T00:39:58;24.05;;;22.80;;
16354;SDS011;8287;51.644;8.494;2022-11-11T00:42:24;16.58;;;15.32;;
16354;SDS011;8287;51.644;8.494;2022-11-11T00:44:51;20.90;;;19.80;;
16354;SDS011;8287;51.644;8.494;2022-11-11T00:47:18;19.63;;;18.73;;
16354;SDS011;8287;51.644;8.494;2022-11-11T00:50:03;22.75;;;21.52;;
16354;SDS011;8287;51.644;8.494;2022-11-11T00:52:48;21.88;;;20.88;;
16354;SDS011;8287;51.644;8.494;2022-11-11T00:55:16;26.80;;;25.45;;
16354;SDS011;8287;51.644;8.494;2022-11-11T00:57:43;18.17;;;16.90;;
16354;SDS011;8287;51.644;8.494;2022-11-11T01:00:10;27.77;;;26.52;;
16354;SDS011;8287;51.644;8.494;2022-11-11T01:02:37;15.48;;;14.63;;
16354;SDS011;8287;51.644;8.494;2022-11-11T01:05:04;18.50;;;17.60;;
16354;SDS011;8287;51.644;8.494;2022-11-11T01:07:31;14.63;;;13.90;;
16354;SDS011;8287;51.644;8.494;2022-11-11T01:09:57;20.58;;;19.58;;
16354;SDS011;8287;51.644;8.494;2022-11-11T01:12:25;14.95;;;14.15;;
16354;SDS011;8287;51.644;8.494;2022-11-11T01:14:52;16.50;;;15.70;;
16354;SDS011;8287;51.644;8.494;2022-11-11T01:17:18;19.83;;;18.80;;
16354;SDS011;8287;51.644;8.494;2022-11-11T01:19:45;16.58;;;15.63;;
16354;SDS011;8287;51.644;8.494;2022-11-11T01:22:11;16.25;;;15.45;;
16354;SDS011;8287;51.644;8.494;2022-11-11T01:24:38;15.45;;;14.65;;
16354;SDS011;8287;51.644;8.494;2022-11-11T01:27:05;14.25;;;13.65;;
16354;SDS011;8287;51.644;8.494;2022-11-11T01:29:32;26.08;;;24.23;;
16354;SDS011;8287;51.644;8.494;2022-11-11T01:31:59;15.63;;;14.70;;
16354;SDS011;8287;51.644;8.494;2022-11-11T01:34:26;17.20;;;16.30;;
16354;SDS011;8287;51.644;8.494;2022-11-11T01:36:53;16.30;;;15.50;;
16354;SDS011;8287;51.644;8.494;2022-11-11T01:39:19;16.20;;;15.50;;
16354;SDS011;8287;51.644;8.494;2022-11-11T01:41:46;19.83;;;18.73;;
16354;SDS011;8287;51.644;8.494;2022-11-11T01:44:19;15.95;;;15.15;;
16354;SDS011;8287;51.644;8.494;2022-11-11T01:47:08;16.65;;;15.75;;
16354;SDS011;8287;51.644;8.494;2022-11-11T01:49:36;19.38;;;18.48;;
16354;SDS011;8287;51.644;8.494;2022-11-11T01:52:13;16.90;;;15.88;;
16354;SDS011;8287;51.644;8.494;2022-11-11T01:54:45;19.00;;;18.10;;
16354;SDS011;8287;51.644;8.494;2022-11-11T01:57:17;17.23;;;16.33;;
16354;SDS011;8287;51.644;8.494;2022-11-11T01:59:53;19.50;;;18.70;;
16354;SDS011;8287;51.644;8.494;2022-11-11T02:02:25;16.48;;;15.52;;
16354;SDS011;8287;51.644;8.494;2022-11-11T02:04:58;17.15;;;16.13;;
16354;SDS011;8287;51.644;8.494;2022-11-11T02:07:54;19.35;;;18.40;;
16354;SDS011;8287;51.644;8.494;2022-11-11T02:10:24;15.52;;;14.82;;
16354;SDS011;8287;51.644;8.494;2022-11-11T02:12:53;21.88;;;20.98;;
16354;SDS011;8287;51.644;8.494;2022-11-11T02:15:39;20.00;;;18.98;;
16354;SDS011;8287;51.644;8.494;2022-11-11T02:18:06;13.73;;;13.07;;
16354;SDS011;8287;51.644;8.494;2022-11-11T02:20:33;15.45;;;14.57;;
16354;SDS011;8287;51.644;8.494;2022-11-11T02:23:03;18.35;;;17.55;;
16354;SDS011;8287;51.644;8.494;2022-11-11T02:25:34;17.95;;;16.95;;
16354;SDS011;8287;51.644;8.494;2022-11-11T02:28:04;14.48;;;13.77;;
16354;SDS011;8287;51.644;8.494;2022-11-11T02:30:33;16.70;;;15.95;;
16354;SDS011;8287;51.644;8.494;2022-11-11T02:33:00;16.00;;;15.20;;
16354;SDS011;8287;51.644;8.494;2022-11-11T02:35:29;19.55;;;18.30;;
16354;SDS011;8287;51.644;8.494;2022-11-11T02:37:56;16.33;;;15.52;;
16354;SDS011;8287;51.644;8.494;2022-11-11T02:40:24;14.82;;;14.23;;
16354;SDS011;8287;51.644;8.494;2022-11-11T02:42:56;15.95;;;14.93;;
16354;SDS011;8287;51.644;8.494;2022-11-11T02:45:23;16.67;;;15.93;;
16354;SDS011;8287;51.644;8.494;2022-11-11T02:47:50;16.60;;;15.80;;
16354;SDS011;8287;51.644;8.494;2022-11-11T02:50:16;16.98;;;16.05;;
16354;SDS011;8287;51.644;8.494;2022-11-11T02:52:43;19.70;;;18.83;;
16354;SDS011;8287;51.644;8.494;2022-11-11T02:55:09;18.10;;;17.23;;
16354;SDS011;8287;51.644;8.494;2022-11-11T02:57:36;17.17;;;16.38;;
16354;SDS011;8287;51.644;8.494;2022-11-11T03:00:05;16.35;;;15.65;;
16354;SDS011;8287;51.644;8.494;2022-11-11T03:02:33;13.68;;;12.88;;
16354;SDS011;8287;51.644;8.494;2022-11-11T03:04:59;19.90;;;18.92;;
16354;SDS011;8287;51.644;8.494;2022-11-11T03:07:26;16.25;;;15.50;;
16354;SDS011;8287;51.644;8.494;2022-11-11T03:09:52;15.95;;;15.25;;
16354;SDS011;8287;51.644;8.494;2022-11-11T03:12:19;17.05;;;16.25;;
16354;SDS011;8287;51.644;8.494;2022-11-11T03:14:46;17.45;;;16.55;;
16354;SDS011;8287;51.644;8.494;2022-11-11T03:17:14;18.60;;;17.65;;
16354;SDS011;8287;51.644;8.494;2022-11-11T03:19:58;16.40;;;15.70;;
16354;SDS011;8287;51.644;8.494;2022-11-11T03:22:38;15.38;;;14.57;;
16354;SDS011;8287;51.644;8.494;2022-11-11T03:25:05;17.13;;;16.33;;
16354;SDS011;8287;51.644;8.494;2022-11-11T03:27:50;17.33;;;16.52;;
16354;SDS011;8287;51.644;8.494;2022-11-11T03:30:16;17.80;;;17.00;;
16354;SDS011;8287;51.644;8.494;2022-11-11T03:32:44;21.92;;;20.75;;
16354;SDS011;8287;51.644;8.494;2022-11-11T03:35:11;14.88;;;14.25;;
16354;SDS011;8287;51.644;8.494;2022-11-11T03:37:37;17.13;;;16.33;;
16354;SDS011;8287;51.644;8.494;2022-11-11T03:40:21;16.15;;;15.18;;
16354;SDS011;8287;51.644;8.494;2022-11-11T03:42:48;17.95;;;16.92;;
16354;SDS011;8287;51.644;8.494;2022-11-11T03:45:14;16.85;;;15.88;;
16354;SDS011;8287;51.644;8.494;2022-11-11T03:47:41;16.90;;;16.20;;
16354;SDS011;8287;51.644;8.494;2022-11-11T03:50:09;17.80;;;16.70;;
16354;SDS011;8287;51.644;8.494;2022-11-11T03:52:39;16.25;;;15.45;;
16354;SDS011;8287;51.644;8.494;2022-11-11T03:55:07;15.35;;;14.70;;
16354;SDS011;8287;51.644;8.494;2022-11-11T03:57:37;16.58;;;15.88;;
16354;SDS011;8287;51.644;8.494;2022-11-11T04:00:05;16.52;;;15.73;;
16354;SDS011;8287;51.644;8.494;2022-11-11T04:02:33;16.88;;;16.08;;
16354;SDS011;8287;51.644;8.494;2022-11-11T04:05:18;17.38;;;16.38;;
16354;SDS011;8287;51.644;8.494;2022-11-11T04:08:03;18.45;;;17.55;;
16354;SDS011;8287;51.644;8.494;2022-11-11T04:10:47;16.15;;;15.55;;
16354;SDS011;8287;51.644;8.494;2022-11-11T04:13:13;17.80;;;17.00;;
16354;SDS011;8287;51.644;8.494;2022-11-11T04:15:57;16.30;;;15.60;;
16354;SDS011;8287;51.644;8.494;2022-11-11T04:18:33;16.70;;;15.88;;
16354;SDS011;8287;51.644;8.494;2022-11-11T04:21:19;15.45;;;14.63;;
16354;SDS011;8287;51.644;8.494;2022-11-11T04:24:03;16.10;;;15.02;;
16354;SDS011;8287;51.644;8.494;2022-11-11T04:26:52;17.63;;;16.92;;
16354;SDS011;8287;51.644;8.494;2022-11-11T04:29:18;15.32;;;14.70;;
16354;SDS011;8287;51.644;8.494;2022-11-11T04:31:54;18.52;;;17.42;;
16354;SDS011;8287;51.644;8.494;2022-11-11T04:34:40;16.48;;;15.38;;
16354;SDS011;8287;51.644;8.494;2022-11-11T04:37:08;17.02;;;16.23;;
16354;SDS011;8287;51.644;8.494;2022-11-11T04:39:35;15.80;;;15.15;;
16354;SDS011;8287;51.644;8.494;2022-11-11T04:42:19;16.95;;;16.15;;
16354;SDS011;8287;51.644;8.494;2022-11-11T04:44:45;17.23;;;16.52;;
16354;SDS011;8287;51.644;8.494;2022-11-11T04:47:29;15.90;;;15.07;;
16354;SDS011;8287;51.644;8.494;2022-11-11T04:49:56;16.23;;;15.52;;
16354;SDS011;8287;51.644;8.494;2022-11-11T04:52:24;15.95;;;15.25;;
16354;SDS011;8287;51.644;8.494;2022-11-11T04:54:54;14.93;;;14.10;;
16354;SDS011;8287;51.644;8.494;2022-11-11T04:57:39;16.95;;;16.15;;
16354;SDS011;8287;51.644;8.494;2022-11-11T05:00:07;17.02;;;16.13;;
16354;SDS011;8287;51.644;8.494;2022-11-11T05:02:35;15.98;;;14.85;;
16354;SDS011;8287;51.644;8.494;2022-11-11T05:05:19;15.30;;;14.50;;
16354;SDS011;8287;51.644;8.494;2022-11-11T05:07:47;17.70;;;17.00;;
16354;SDS011;8287;51.644;8.494;2022-11-11T05:10:31;15.35;;;14.35;;
16354;SDS011;8287;51.644;8.494;2022-11-11T05:12:58;17.10;;;16.20;;
16354;SDS011;8287;51.644;8.494;2022-11-11T05:15:38;16.25;;;15.50;;
16354;SDS011;8287;51.644;8.494;2022-11-11T05:18:22;17.25;;;16.50;;
16354;SDS011;8287;51.644;8.494;2022-11-11T05:21:08;16.45;;;15.75;;
16354;SDS011;8287;51.644;8.494;2022-11-11T05:23:47;16.83;;;15.55;;
16354;SDS011;8287;51.644;8.494;2022-11-11T05:26:31;15.00;;;14.38;;
16354;SDS011;8287;51.644;8.494;2022-11-11T05:28:58;16.17;;;15.48;;
16354;SDS011;8287;51.644;8.494;2022-11-11T05:31:24;16.45;;;15.75;;
16354;SDS011;8287;51.644;8.494;2022-11-11T05:33:52;14.98;;;14.32;;
16354;SDS011;8287;51.644;8.494;2022-11-11T05:36:18;16.02;;;15.32;;
16354;SDS011;8287;51.644;8.494;2022-11-11T05:38:46;17.10;;;16.33;;
16354;SDS011;8287;51.644;8.494;2022-11-11T05:41:13;16.48;;;15.68;;
16354;SDS011;8287;51.644;8.494;2022-11-11T05:43:39;15.75;;;14.95;;
16354;SDS011;8287;51.644;8.494;2022-11-11T05:46:06;19.90;;;19.00;;
16354;SDS011;8287;51.644;8.494;2022-11-11T05:48:33;16.13;;;15.35;;
16354;SDS011;8287;51.644;8.494;2022-11-11T05:50:59;15.18;;;14.48;;
16354;SDS011;8287;51.644;8.494;2022-11-11T05:53:26;17.27;;;16.40;;
16354;SDS011;8287;51.644;8.494;2022-11-11T05:55:54;15.85;;;15.05;;
16354;SDS011;8287;51.644;8.494;2022-11-11T05:58:21;15.50;;;14.70;;
16354;SDS011;8287;51.644;8.494;2022-11-11T06:00:48;15.85;;;14.95;;
16354;SDS011;8287;51.644;8.494;2022-11-11T06:03:14;16.67;;;15.88;;
16354;SDS011;8287;51.644;8.494;2022-11-11T06:05:41;16.02;;;15.32;;
16354;SDS011;8287;51.644;8.494;2022-11-11T06:08:07;17.25;;;16.40;;
16354;SDS011;8287;51.644;8.494;2022-11-11T06:10:34;13.75;;;13.18;;
16354;SDS011;8287;51.644;8.494;2022-11-11T06:13:03;15.45;;;14.80;;
16354;SDS011;8287;51.644;8.494;2022-11-11T06:15:31;16.40;;;15.63;;
16354;SDS011;8287;51.644;8.494;2022-11-11T06:17:59;17.15;;;16.45;;
16354;SDS011;8287;51.644;8.494;2022-11-11T06:20:26;19.23;;;18.42;;
16354;SDS011;8287;51.644;8.494;2022-11-11T06:22:53;15.52;;;14.52;;
16354;SDS011;8287;51.644;8.494;2022-11-11T06:25:23;16.38;;;15.50;;
16354;SDS011;8287;51.644;8.494;2022-11-11T06:28:10;16.92;;;16.02;;
16354;SDS011;8287;51.644;8.494;2022-11-11T06:30:37;16.70;;;16.00;;
16354;SDS011;8287;51.644;8.494;2022-11-11T06:33:04;15.07;;;14.38;;
16354;SDS011;8287;51.644;8.494;2022-11-11T06:35:32;15.27;;;14.38;;
16354;SDS011;8287;51.644;8.494;2022-11-11T06:37:59;17.25;;;16.52;;
16354;SDS011;8287;51.644;8.494;2022-11-11T06:40:26;15.57;;;14.65;;
16354;SDS011;8287;51.644;8.494;2022-11-11T06:42:52;16.80;;;16.05;;
16354;SDS011;8287;51.644;8.494;2022-11-11T06:45:21;16.35;;;15.35;;
16354;SDS011;8287;51.644;8.494;2022-11-11T06:47:47;20.17;;;19.08;;
16354;SDS011;8287;51.644;8.494;2022-11-11T06:50:14;18.73;;;17.83;;
16354;SDS011;8287;51.644;8.494;2022-11-11T06:52:41;14.77;;;13.95;;
16354;SDS011;8287;51.644;8.494;2022-11-11T06:55:08;15.38;;;14.77;;
16354;SDS011;8287;51.644;8.494;2022-11-11T06:57:34;18.38;;;17.58;;
16354;SDS011;8287;51.644;8.494;2022-11-11T07:00:02;22.05;;;20.95;;
16354;SDS011;8287;51.644;8.494;2022-11-11T07:02:30;22.70;;;21.80;;
16354;SDS011;8287;51.644;8.494;2022-11-11T07:04:58;16.08;;;15.30;;
16354;SDS011;8287;51.644;8.494;2022-11-11T07:07:25;16.33;;;15.63;;
16354;SDS011;8287;51.644;8.494;2022-11-11T07:09:52;19.27;;;18.45;;
16354;SDS011;8287;51.644;8.494;2022-11-11T07:12:19;14.35;;;13.65;;
16354;SDS011;8287;51.644;8.494;2022-11-11T07:14:46;15.18;;;14.48;;
16354;SDS011;8287;51.644;8.494;2022-11-11T07:17:13;16.35;;;15.55;;
16354;SDS011;8287;51.644;8.494;2022-11-11T07:19:41;19.38;;;18.10;;
16354;SDS011;8287;51.644;8.494;2022-11-11T07:22:08;20.92;;;20.02;;
16354;SDS011;8287;51.644;8.494;2022-11-11T07:24:34;22.63;;;21.48;;
16354;SDS011;8287;51.644;8.494;2022-11-11T07:27:01;24.48;;;23.40;;
16354;SDS011;8287;51.644;8.494;2022-11-11T07:29:27;26.23;;;25.13;;
16354;SDS011;8287;51.644;8.494;2022-11-11T07:31:54;22.92;;;21.98;;
16354;SDS011;8287;51.644;8.494;2022-11-11T07:34:21;25.33;;;24.15;;
16354;SDS011;8287;51.644;8.494;2022-11-11T07:36:49;26.55;;;25.20;;
16354;SDS011;8287;51.644;8.494;2022-11-11T07:39:15;13.88;;;13.27;;
16354;SDS011;8287;51.644;8.494;2022-11-11T07:41:42;17.52;;;16.63;;
16354;SDS011;8287;51.644;8.494;2022-11-11T07:44:08;14.73;;;14.02;;
16354;SDS011;8287;51.644;8.494;2022-11-11T07:46:35;14.85;;;14.20;;
16354;SDS011;8287;51.644;8.494;2022-11-11T07:49:02;14.95;;;14.07;;
16354;SDS011;8287;51.644;8.494;2022-11-11T07:51:28;13.63;;;13.02;;
16354;SDS011;8287;51.644;8.494;2022-11-11T07:53:56;18.92;;;18.00;;
16354;SDS011;8287;51.644;8.494;2022-11-11T07:56:23;16.95;;;16.00;;
16354;SDS011;8287;51.644;8.494;2022-11-11T07:58:49;17.50;;;16.58;;
16354;SDS011;8287;51.644;8.494;2022-11-11T08:01:16;14.77;;;14.18;;
16354;SDS011;8287;51.644;8.494;2022-11-11T08:03:43;17.75;;;16.85;;
16354;SDS011;8287;51.644;8.494;2022-11-11T08:06:14;15.23;;;14.57;;
16354;SDS011;8287;51.644;8.494;2022-11-11T08:08:42;17.17;;;16.17;;
16354;SDS011;8287;51.644;8.494;2022-11-11T08:11:09;13.35;;;12.82;;
16354;SDS011;8287;51.644;8.494;2022-11-11T08:13:36;14.98;;;14.27;;
16354;SDS011;8287;51.644;8.494;2022-11-11T08:16:05;13.90;;;13.40;;
16354;SDS011;8287;51.644;8.494;2022-11-11T08:18:31;13.98;;;13.38;;
16354;SDS011;8287;51.644;8.494;2022-11-11T08:20:58;14.65;;;13.93;;
16354;SDS011;8287;51.644;8.494;2022-11-11T08:23:25;14.02;;;13.43;;
16354;SDS011;8287;51.644;8.494;2022-11-11T08:25:57;13.85;;;13.25;;
16354;SDS011;8287;51.644;8.494;2022-11-11T08:28:25;14.82;;;14.02;;
16354;SDS011;8287;51.644;8.494;2022-11-11T08:30:52;14.70;;;14.10;;
16354;SDS011;8287;51.644;8.494;2022-11-11T08:33:19;16.13;;;15.43;;
16354;SDS011;8287;51.644;8.494;2022-11-11T08:35:46;15.05;;;14.43;;
16354;SDS011;8287;51.644;8.494;2022-11-11T08:38:13;14.05;;;13.35;;
16354;SDS011;8287;51.644;8.494;2022-11-11T08:40:40;17.25;;;16.52;;
16354;SDS011;8287;51.644;8.494;2022-11-11T08:43:07;15.90;;;15.20;;
16354;SDS011;8287;51.644;8.494;2022-11-11T08:45:35;16.38;;;15.48;;
16354;SDS011;8287;51.644;8.494;2022-11-11T08:48:01;18.33;;;17.63;;
16354;SDS011;8287;51.644;8.494;2022-11-11T08:50:28;17.38;;;16.65;;
16354;SDS011;8287;51.644;8.494;2022-11-11T08:52:54;20.00;;;19.00;;
16354;SDS011;8287;51.644;8.494;2022-11-11T08:55:21;19.80;;;19.00;;
16354;SDS011;8287;51.644;8.494;2022-11-11T08:57:49;18.88;;;18.02;;
16354;SDS011;8287;51.644;8.494;2022-11-11T09:00:22;18.65;;;17.85;;
16354;SDS011;8287;51.644;8.494;2022-11-11T09:02:50;18.60;;;17.80;;
16354;SDS011;8287;51.644;8.494;2022-11-11T09:05:17;18.17;;;17.48;;
16354;SDS011;8287;51.644;8.494;2022-11-11T09:07:44;19.63;;;18.83;;
16354;SDS011;8287;51.644;8.494;2022-11-11T09:10:11;18.35;;;17.58;;
16354;SDS011;8287;51.644;8.494;2022-11-11T09:12:37;20.42;;;19.52;;
16354;SDS011;8287;51.644;8.494;2022-11-11T09:15:04;18.38;;;17.58;;
16354;SDS011;8287;51.644;8.494;2022-11-11T09:17:31;21.95;;;20.77;;
16354;SDS011;8287;51.644;8.494;2022-11-11T09:19:59;22.40;;;21.50;;
16354;SDS011;8287;51.644;8.494;2022-11-11T09:22:26;23.60;;;22.60;;
16354;SDS011;8287;51.644;8.494;2022-11-11T09:24:52;17.95;;;16.95;;
16354;SDS011;8287;51.644;8.494;2022-11-11T09:27:20;24.58;;;23.60;;
16354;SDS011;8287;51.644;8.494;2022-11-11T09:29:46;21.85;;;20.83;;
16354;SDS011;8287;51.644;8.494;2022-11-11T09:32:13;24.33;;;23.33;;
16354;SDS011;8287;51.644;8.494;2022-11-11T09:34:40;25.08;;;24.02;;
16354;SDS011;8287;51.644;8.494;2022-11-11T09:37:07;25.98;;;24.77;;
16354;SDS011;8287;51.644;8.494;2022-11-11T09:39:34;27.05;;;25.95;;
16354;SDS011;8287;51.644;8.494;2022-11-11T09:42:02;27.55;;;26.42;;
16354;SDS011;8287;51.644;8.494;2022-11-11T09:44:43;20.42;;;19.58;;
16354;SDS011;8287;51.644;8.494;2022-11-11T09:47:28;22.83;;;21.88;;
16354;SDS011;8287;51.644;8.494;2022-11-11T09:50:02;33.25;;;31.90;;
16354;SDS011;8287;51.644;8.494;2022-11-11T09:52:33;21.88;;;20.77;;
16354;SDS011;8287;51.644;8.494;2022-11-11T09:55:11;32.38;;;31.05;;
16354;SDS011;8287;51.644;8.494;2022-11-11T09:57:43;21.95;;;21.05;;
16354;SDS011;8287;51.644;8.494;2022-11-11T10:00:14;25.50;;;24.42;;
16354;SDS011;8287;51.644;8.494;2022-11-11T10:02:45;30.13;;;28.67;;
16354;SDS011;8287;51.644;8.494;2022-11-11T10:05:15;37.97;;;36.40;;
16354;SDS011;8287;51.644;8.494;2022-11-11T10:07:46;38.42;;;36.72;;
16354;SDS011;8287;51.644;8.494;2022-11-11T10:10:22;29.42;;;28.13;;
16354;SDS011;8287;51.644;8.494;2022-11-11T10:12:56;29.15;;;27.95;;
16354;SDS011;8287;51.644;8.494;2022-11-11T10:15:23;26.45;;;25.00;;
16354;SDS011;8287;51.644;8.494;2022-11-11T10:17:59;24.90;;;23.48;;
16354;SDS011;8287;51.644;8.494;2022-11-11T10:20:34;25.92;;;24.77;;
16354;SDS011;8287;51.644;8.494;2022-11-11T10:23:09;39.65;;;37.95;;
16354;SDS011;8287;51.644;8.494;2022-11-11T10:25:40;28.40;;;27.17;;
16354;SDS011;8287;51.644;8.494;2022-11-11T10:28:13;28.48;;;27.27;;
16354;SDS011;8287;51.644;8.494;2022-11-11T10:30:42;32.55;;;31.25;;
16354;SDS011;8287;51.644;8.494;2022-11-11T10:33:11;39.22;;;37.45;;
16354;SDS011;8287;51.644;8.494;2022-11-11T10:35:43;37.85;;;36.08;;
16354;SDS011;8287;51.644;8.494;2022-11-11T10:38:22;23.50;;;22.50;;
16354;SDS011;8287;51.644;8.494;2022-11-11T10:40:58;22.60;;;21.50;;
16354;SDS011;8287;51.644;8.494;2022-11-11T10:43:29;30.42;;;28.83;;
16354;SDS011;8287;51.644;8.494;2022-11-11T10:45:58;19.15;;;18.02;;
16354;SDS011;8287;51.644;8.494;2022-11-11T10:48:32;29.48;;;28.10;;
16354;SDS011;8287;51.644;8.494;2022-11-11T10:51:05;20.05;;;18.83;;
16354;SDS011;8287;51.644;8.494;2022-11-11T10:53:34;23.23;;;22.23;;
16354;SDS011;8287;51.644;8.494;2022-11-11T10:56:08;16.80;;;15.85;;
16354;SDS011;8287;51.644;8.494;2022-11-11T10:58:42;19.67;;;18.73;;
16354;SDS011;8287;51.644;8.494;2022-11-11T11:01:16;25.35;;;23.92;;
16354;SDS011;8287;51.644;8.494;2022-11-11T11:03:48;17.42;;;16.73;;
16354;SDS011;8287;51.644;8.494;2022-11-11T11:06:19;16.25;;;15.40;;
16354;SDS011;8287;51.644;8.494;2022-11-11T11:08:51;16.67;;;15.38;;
16354;SDS011;8287;51.644;8.494;2022-11-11T11:11:21;20.02;;;19.00;;
16354;SDS011;8287;51.644;8.494;2022-11-11T11:13:57;15.60;;;15.00;;
16354;SDS011;8287;51.644;8.494;2022-11-11T11:16:27;17.15;;;15.93;;
16354;SDS011;8287;51.644;8.494;2022-11-11T11:19:14;15.77;;;15.10;;
16354;SDS011;8287;51.644;8.494;2022-11-11T11:21:52;18.80;;;18.00;;
16354;SDS011;8287;51.644;8.494;2022-11-11T11:24:22;16.83;;;16.13;;
16354;SDS011;8287;51.644;8.494;2022-11-11T11:26:51;15.68;;;15.05;;
16354;SDS011;8287;51.644;8.494;2022-11-11T11:29:25;15.23;;;14.65;;
16354;SDS011;8287;51.644;8.494;2022-11-11T11:31:54;22.08;;;21.23;;
16354;SDS011;8287;51.644;8.494;2022-11-11T11:34:21;25.90;;;24.88;;
16354;SDS011;8287;51.644;8.494;2022-11-11T11:37:07;22.95;;;21.85;;
16354;SDS011;8287;51.644;8.494;2022-11-11T11:39:35;22.73;;;21.75;;
16354;SDS011;8287;51.644;8.494;2022-11-11T11:42:03;22.23;;;21.33;;
16354;SDS011;8287;51.644;8.494;2022-11-11T11:44:31;20.55;;;19.63;;
16354;SDS011;8287;51.644;8.494;2022-11-11T11:47:01;27.52;;;26.33;;
16354;SDS011;8287;51.644;8.494;2022-11-11T11:49:46;21.70;;;20.52;;
16354;SDS011;8287;51.644;8.494;2022-11-11T11:52:31;22.50;;;21.42;;
16354;SDS011;8287;51.644;8.494;2022-11-11T11:55:10;21.38;;;20.48;;
16354;SDS011;8287;51.644;8.494;2022-11-11T11:57:49;20.63;;;19.83;;
16354;SDS011;8287;51.644;8.494;2022-11-11T12:00:23;26.40;;;25.40;;
16354;SDS011;8287;51.644;8.494;2022-11-11T12:03:07;21.88;;;20.98;;
16354;SDS011;8287;51.644;8.494;2022-11-11T12:05:52;28.98;;;27.75;;
16354;SDS011;8287;51.644;8.494;2022-11-11T12:08:34;20.27;;;19.48;;
16354;SDS011;8287;51.644;8.494;2022-11-11T12:11:12;25.48;;;24.48;;
16354;SDS011;8287;51.644;8.494;2022-11-11T12:13:49;20.33;;;19.52;;
16354;SDS011;8287;51.644;8.494;2022-11-11T12:16:31;19.00;;;18.27;;
16354;SDS011;8287;51.644;8.494;2022-11-11T12:19:09;19.20;;;18.38;;
16354;SDS011;8287;51.644;8.494;2022-11-11T12:21:52;29.73;;;28.38;;
16354;SDS011;8287;51.644;8.494;2022-11-11T12:24:31;16.63;;;15.82;;
16354;SDS011;8287;51.644;8.494;2022-11-11T12:27:17;19.63;;;18.90;;
16354;SDS011;8287;51.644;8.494;2022-11-11T12:29:56;20.20;;;19.30;;
16354;SDS011;8287;51.644;8.494;2022-11-11T12:32:31;19.75;;;19.02;;
16354;SDS011;8287;51.644;8.494;2022-11-11T12:35:16;20.80;;;19.98;;
16354;SDS011;8287;51.644;8.494;2022-11-11T12:37:54;17.45;;;16.58;;
16354;SDS011;8287;51.644;8.494;2022-11-11T12:40:34;17.15;;;16.48;;
16354;SDS011;8287;51.644;8.494;2022-11-11T12:43:17;18.38;;;17.67;;
16354;SDS011;8287;51.644;8.494;2022-11-11T12:45:53;18.85;;;18.05;;
16354;SDS011;8287;51.644;8.494;2022-11-11T12:51:18;17.42;;;16.73;;
16354;SDS011;8287;51.644;8.494;2022-11-11T12:53:54;16.20;;;15.50;;
16354;SDS011;8287;51.644;8.494;2022-11-11T12:56:30;18.13;;;17.42;;
16354;SDS011;8287;51.644;8.494;2022-11-11T12:59:07;18.35;;;17.58;;
16354;SDS011;8287;51.644;8.494;2022-11-11T13:01:49;17.38;;;16.73;;
16354;SDS011;8287;51.644;8.494;2022-11-11T13:04:23;17.95;;;17.25;;
16354;SDS011;8287;51.644;8.494;2022-11-11T13:07:02;18.75;;;17.95;;
16354;SDS011;8287;51.644;8.494;2022-11-11T13:09:43;16.70;;;16.10;;
16354;SDS011;8287;51.644;8.494;2022-11-11T13:12:23;16.75;;;16.08;;
16354;SDS011;8287;51.644;8.494;2022-11-11T13:14:59;17.17;;;16.50;;
16354;SDS011;8287;51.644;8.494;2022-11-11T13:17:30;16.67;;;15.70;;
16354;SDS011;8287;51.644;8.494;2022-11-11T13:19:58;18.80;;;17.88;;
16354;SDS011;8287;51.644;8.494;2022-11-11T13:22:29;19.20;;;18.40;;
16354;SDS011;8287;51.644;8.494;2022-11-11T13:24:57;17.10;;;16.40;;
16354;SDS011;8287;51.644;8.494;2022-11-11T13:27:30;18.67;;;17.88;;
16354;SDS011;8287;51.644;8.494;2022-11-11T13:30:09;17.25;;;16.55;;
16354;SDS011;8287;51.644;8.494;2022-11-11T13:32:54;17.50;;;16.67;;
16354;SDS011;8287;51.644;8.494;2022-11-11T13:35:27;18.35;;;17.65;;
16354;SDS011;8287;51.644;8.494;2022-11-11T13:37:57;16.17;;;15.57;;
16354;SDS011;8287;51.644;8.494;2022-11-11T13:40:34;17.20;;;16.50;;
16354;SDS011;8287;51.644;8.494;2022-11-11T13:43:04;14.73;;;14.13;;
16354;SDS011;8287;51.644;8.494;2022-11-11T13:45:42;15.73;;;14.93;;
16354;SDS011;8287;51.644;8.494;2022-11-11T13:48:18;13.85;;;13.25;;
16354;SDS011;8287;51.644;8.494;2022-11-11T13:50:51;15.98;;;15.32;;
16354;SDS011;8287;51.644;8.494;2022-11-11T13:53:25;14.68;;;14.07;;
16354;SDS011;8287;51.644;8.494;2022-11-11T13:55:59;15.90;;;15.20;;
16354;SDS011;8287;51.644;8.494;2022-11-11T13:58:28;18.00;;;17.05;;
16354;SDS011;8287;51.644;8.494;2022-11-11T14:00:59;17.25;;;16.55;;
16354;SDS011;8287;51.644;8.494;2022-11-11T14:03:31;19.63;;;18.77;;
16354;SDS011;8287;51.644;8.494;2022-11-11T14:06:35;19.35;;;18.55;;
16354;SDS011;8287;51.644;8.494;2022-11-11T14:12:34;20.42;;;19.63;;
16354;SDS011;8287;51.644;8.494;2022-11-11T14:15:03;19.70;;;18.80;;
16354;SDS011;8287;51.644;8.494;2022-11-11T14:17:34;17.85;;;17.02;;
16354;SDS011;8287;51.644;8.494;2022-11-11T14:23:15;21.77;;;20.25;;
16354;SDS011;8287;51.644;8.494;2022-11-11T14:25:49;20.33;;;19.17;;
16354;SDS011;8287;51.644;8.494;2022-11-11T14:28:21;21.52;;;20.60;;
16354;SDS011;8287;51.644;8.494;2022-11-11T14:30:49;22.20;;;21.13;;
16354;SDS011;8287;51.644;8.494;2022-11-11T14:33:20;19.63;;;18.70;;
16354;SDS011;8287;51.644;8.494;2022-11-11T14:35:57;25.30;;;23.85;;
16354;SDS011;8287;51.644;8.494;2022-11-11T14:38:31;19.55;;;18.65;;
16354;SDS011;8287;51.644;8.494;2022-11-11T14:47:22;27.15;;;26.05;;
16354;SDS011;8287;51.644;8.494;2022-11-11T14:49:57;25.13;;;23.90;;
16354;SDS011;8287;51.644;8.494;2022-11-11T14:52:29;24.90;;;23.80;;
16354;SDS011;8287;51.644;8.494;2022-11-11T14:57:47;26.38;;;25.17;;
16354;SDS011;8287;51.644;8.494;2022-11-11T15:00:16;24.15;;;23.05;;
16354;SDS011;8287;51.644;8.494;2022-11-11T15:02:46;28.83;;;27.02;;
16354;SDS011;8287;51.644;8.494;2022-11-11T15:05:19;26.02;;;24.92;;
16354;SDS011;8287;51.644;8.494;2022-11-11T15:10:55;24.17;;;23.17;;
16354;SDS011;8287;51.644;8.494;2022-11-11T15:13:43;23.80;;;22.80;;
16354;SDS011;8287;51.644;8.494;2022-11-11T15:16:23;22.60;;;21.55;;
16354;SDS011;8287;51.644;8.494;2022-11-11T15:19:04;26.80;;;25.38;;
16354;SDS011;8287;51.644;8.494;2022-11-11T15:21:50;24.90;;;23.63;;